Time;durP1;ratioP1;P1;durP2;ratioP2;P2;SDS_P1;SDS_P2;PMS_P1;PMS_P2;Temp;Humidity;BMP_temperature;BMP_pressure;BME280_temperature;BME280_humidity;BME280_pressure;Samples;Min_cycle;Max_cycle;Signal;HPM_P1;HPM_P2
2023/04/28 00:01:56;;;;;;;10.00;2.87;;;;;;;2.03;55.61;99942.14;1784349;78;21098;-66
2023/04/28 00:04:20;;;;;;;2.80;1.72;;;;;;;2.06;55.29;99946.83;1781222;79;21398;-67
2023/04/28 00:06:46;;;;;;;6.17;2.60;;;;;;;2.09;55.25;99949.81;1794925;78;20998;-66
2023/04/28 00:09:12;;;;;;;5.45;2.45;;;;;;;2.12;56.04;99949.78;1793136;78;21064;-67
2023/04/28 00:11:40;;;;;;;6.47;1.85;;;;;;;2.14;55.81;99945.03;1793985;78;20967;-66
2023/04/28 00:14:06;;;;;;;4.70;2.00;;;;;;;2.17;55.89;99951.44;1791974;78;22118;-67
2023/04/28 00:16:32;;;;;;;4.83;2.25;;;;;;;2.19;56.05;99951.44;1799672;78;21029;-66
2023/04/28 00:18:58;;;;;;;5.55;2.10;;;;;;;2.20;55.60;99950.56;1792254;78;21046;-66
2023/04/28 00:21:24;;;;;;;3.70;1.60;;;;;;;2.19;55.58;99956.59;1797293;78;20958;-66
2023/04/28 00:23:51;;;;;;;5.72;2.35;;;;;;;2.11;55.51;99955.81;1792368;78;21884;-66
2023/04/28 00:26:17;;;;;;;6.62;2.12;;;;;;;2.10;55.71;99951.51;1792491;78;21029;-66
2023/04/28 00:28:43;;;;;;;5.45;2.25;;;;;;;2.14;55.99;99953.20;1794318;78;21085;-66
2023/04/28 00:31:12;;;;;;;5.87;2.00;;;;;;;2.16;55.99;99954.90;1793756;78;20968;-66
2023/04/28 00:33:40;;;;;;;4.33;2.10;;;;;;;2.13;55.90;99952.77;1794975;78;21057;-66
2023/04/28 00:36:06;;;;;;;6.85;2.87;;;;;;;2.13;56.02;99957.51;1795373;78;20966;-66
2023/04/28 00:38:33;;;;;;;4.60;2.20;;;;;;;2.10;55.88;99959.23;1803050;78;21016;-66
2023/04/28 00:40:59;;;;;;;7.15;2.27;;;;;;;2.07;56.16;99954.11;1797146;78;21049;-66
2023/04/28 00:43:25;;;;;;;5.53;2.87;;;;;;;2.03;56.04;99957.59;1792488;78;20990;-66
2023/04/28 00:45:51;;;;;;;5.15;2.60;;;;;;;1.90;56.01;99962.83;1797524;78;21045;-66
2023/04/28 00:48:18;;;;;;;4.30;2.27;;;;;;;1.81;56.06;99961.63;1796898;78;21386;-66
2023/04/28 00:50:47;;;;;;;7.17;2.50;;;;;;;1.70;56.17;99964.72;1794979;78;20978;-66
2023/04/28 00:53:13;;;;;;;8.53;2.27;;;;;;;1.65;56.26;99958.73;1802902;78;21577;-66
2023/04/28 00:55:40;;;;;;;7.47;3.40;;;;;;;1.64;56.39;99967.34;1797870;78;20970;-66
2023/04/28 00:58:08;;;;;;;3.42;2.10;;;;;;;1.62;56.62;99966.48;1790157;78;21496;-67
2023/04/28 01:00:35;;;;;;;6.47;2.17;;;;;;;1.62;56.70;99966.48;1791564;78;21045;-66
2023/04/28 01:03:02;;;;;;;6.20;2.12;;;;;;;1.63;57.00;99968.22;1791687;78;20939;-66
2023/04/28 01:05:30;;;;;;;4.72;1.90;;;;;;;1.64;57.07;99965.61;1786495;78;20995;-67
2023/04/28 01:07:56;;;;;;;6.45;2.70;;;;;;;1.58;56.96;99964.81;1788654;78;21326;-66
2023/04/28 01:10:22;;;;;;;6.12;2.52;;;;;;;1.58;56.87;99965.66;1783494;78;21006;-66
2023/04/28 01:12:49;;;;;;;5.92;2.10;;;;;;;1.54;56.90;99964.84;1789700;78;21029;-66
2023/04/28 01:15:17;;;;;;;7.75;2.00;;;;;;;1.53;57.19;99963.11;1797558;78;21037;-66
2023/04/28 01:17:45;;;;;;;4.90;2.22;;;;;;;1.55;57.23;99963.11;1800117;78;20986;-67
2023/04/28 01:20:13;;;;;;;4.87;1.95;;;;;;;1.54;57.32;99962.27;1797007;78;21407;-66
2023/04/28 01:22:40;;;;;;;5.85;2.02;;;;;;;1.55;57.42;99962.67;1796679;78;21031;-66
2023/04/28 01:25:06;;;;;;;2.87;1.57;;;;;;;1.56;57.60;99970.80;1795721;78;20985;-66
2023/04/28 01:27:32;;;;;;;4.50;1.65;;;;;;;1.55;57.28;99969.55;1793026;78;21446;-66
2023/04/28 01:29:59;;;;;;;5.33;1.90;;;;;;;1.53;57.61;99968.25;1796462;78;21572;-66
2023/04/28 01:32:25;;;;;;;5.30;1.98;;;;;;;1.52;57.56;99966.56;1797036;78;21567;-66
2023/04/28 01:34:51;;;;;;;8.00;2.72;;;;;;;1.46;57.47;99973.03;1784402;78;20934;-66
2023/04/28 01:37:17;;;;;;;9.05;1.98;;;;;;;1.36;57.48;99970.09;1794454;78;22087;-67
2023/04/28 01:39:44;;;;;;;5.30;1.65;;;;;;;1.27;57.77;99971.43;1799969;78;21034;-67
2023/04/28 01:42:10;;;;;;;5.47;2.00;;;;;;;1.23;57.79;99976.16;1796911;78;21029;-66
2023/04/28 01:44:37;;;;;;;5.73;2.30;;;;;;;1.17;57.79;99976.19;1800839;78;21049;-66
2023/04/28 01:47:03;;;;;;;3.17;2.00;;;;;;;1.08;57.70;99967.66;1791053;78;20954;-66
2023/04/28 01:49:31;;;;;;;5.17;2.17;;;;;;;0.98;57.87;99966.01;1761095;78;21041;-66
2023/04/28 01:51:58;;;;;;;6.58;2.80;;;;;;;0.95;57.95;99976.28;1799179;78;21608;-66
2023/04/28 01:54:24;;;;;;;5.60;2.17;;;;;;;0.89;58.13;99977.59;1797525;78;21037;-66
2023/04/28 01:56:51;;;;;;;5.47;2.80;;;;;;;0.89;58.22;99984.02;1797521;78;21006;-66
2023/04/28 01:59:19;;;;;;;7.83;2.70;;;;;;;0.87;58.47;99978.05;1798085;78;21537;-66
2023/04/28 02:01:45;;;;;;;;;;;;;;;0.89;58.41;99984.02;1791203;78;21018;-66
2023/04/28 02:04:11;;;;;;;3.27;2.17;;;;;;;0.90;58.82;99978.04;1799195;78;20391;-66
2023/04/28 02:06:37;;;;;;;5.67;2.42;;;;;;;0.91;58.68;99974.59;1791765;78;21041;-66
2023/04/28 02:09:07;;;;;;;6.60;2.20;;;;;;;0.96;58.66;99983.15;1798414;78;21478;-66
2023/04/28 02:11:32;;;;;;;4.15;1.77;;;;;;;1.04;58.92;99984.41;1739020;81;21108;-66
2023/04/28 02:13:58;;;;;;;5.28;1.90;;;;;;;1.11;58.84;99983.06;1732683;80;20994;-66
2023/04/28 02:16:24;;;;;;;6.92;3.25;;;;;;;1.16;58.70;99984.78;1771422;79;21039;-66
2023/04/28 02:18:51;;;;;;;3.77;2.10;;;;;;;1.19;58.89;99982.19;1750472;81;20982;-66
2023/04/28 02:21:17;;;;;;;6.42;2.35;;;;;;;1.18;58.78;99985.64;1773358;79;21084;-66
2023/04/28 02:23:47;;;;;;;3.77;1.85;;;;;;;1.19;58.92;99982.19;1775904;79;21049;-66
2023/04/28 02:26:12;;;;;;;6.40;2.83;;;;;;;1.23;58.93;99989.02;1790749;78;20950;-66
2023/04/28 02:28:38;;;;;;;9.25;2.90;;;;;;;1.18;59.20;99984.35;1794908;78;21033;-66
2023/04/28 02:31:07;;;;;;;5.50;2.58;;;;;;;1.13;59.19;99984.80;1795407;78;21493;-66
2023/04/28 02:33:33;;;;;;;5.75;2.60;;;;;;;1.07;59.72;99981.39;1770222;79;21025;-66
2023/04/28 02:36:01;;;;;;;6.33;2.27;;;;;;;1.03;59.76;99986.54;1771874;79;21033;-66
2023/04/28 02:38:27;;;;;;;;;;;;;;;1.02;59.87;99977.13;1781209;80;21510;-66
2023/04/28 02:41:03;;;;;;;7.15;2.20;;;;;;;1.00;60.02;99979.69;1737983;81;20155;-66
2023/04/28 02:43:31;;;;;;;8.63;2.40;;;;;;;1.01;59.67;99983.98;1780341;79;21599;-66
2023/04/28 02:45:57;;;;;;;5.05;2.35;;;;;;;1.01;59.60;99983.11;1747171;81;21049;-66
2023/04/28 02:48:24;;;;;;;5.45;2.58;;;;;;;1.01;59.77;99978.84;1739822;81;21537;-66
2023/04/28 02:50:51;;;;;;;9.90;2.33;;;;;;;1.05;59.68;99986.95;1771732;79;21535;-66
2023/04/28 02:53:20;;;;;;;6.90;2.62;;;;;;;1.06;59.74;99977.08;1792867;78;20981;-67
2023/04/28 02:55:51;;;;;;;6.67;2.80;;;;;;;1.09;59.70;99983.94;1796365;78;21137;-67
2023/04/28 02:58:16;;;;;;;4.05;2.27;;;;;;;1.03;59.74;99986.10;1780081;79;21053;-66
2023/04/28 03:00:44;;;;;;;5.30;2.40;;;;;;;1.05;59.91;99990.81;1782373;79;20962;-67
2023/04/28 03:03:10;;;;;;;6.20;2.67;;;;;;;1.08;59.78;99980.52;1795179;78;21060;-66
2023/04/28 03:05:36;;;;;;;7.95;2.70;;;;;;;1.08;59.88;99988.23;1793326;78;20997;-68
2023/04/28 03:08:03;;;;;;;6.35;2.45;;;;;;;1.04;59.94;99985.27;1789857;78;21413;-66
2023/04/28 03:10:30;;;;;;;5.42;2.47;;;;;;;1.02;59.91;99985.69;1794478;78;21044;-67
2023/04/28 03:12:56;;;;;;;7.17;2.95;;;;;;;0.98;60.02;99984.01;1796531;78;20942;-66
2023/04/28 03:15:22;;;;;;;27.58;3.72;;;;;;;0.94;60.21;99992.58;1793860;78;21065;-66
2023/04/28 03:17:49;;;;;;;7.80;3.13;;;;;;;0.89;60.22;99991.73;1798085;78;21080;-66
2023/04/28 03:20:15;;;;;;;6.87;3.05;;;;;;;0.87;60.37;99988.34;1793867;78;21076;-66
2023/04/28 03:22:41;;;;;;;6.40;2.90;;;;;;;0.85;60.42;99991.33;1796103;78;21033;-66
2023/04/28 03:25:08;;;;;;;10.25;2.80;;;;;;;0.84;60.39;99993.05;1797756;78;21041;-66
2023/04/28 03:27:34;;;;;;;6.87;2.35;;;;;;;0.83;60.31;99989.19;1795512;78;20989;-66
2023/04/28 03:30:01;;;;;;;5.83;2.42;;;;;;;0.85;60.41;99990.05;1792989;78;20955;-67
2023/04/28 03:32:27;;;;;;;7.78;2.17;;;;;;;0.88;60.39;99997.31;1790654;78;21086;-66
2023/04/28 03:34:53;;;;;;;6.25;2.47;;;;;;;0.91;60.35;99992.59;1796428;78;21390;-67
2023/04/28 03:37:19;;;;;;;12.85;2.65;;;;;;;0.95;60.38;99992.98;1797071;78;21523;-66
2023/04/28 03:39:46;;;;;;;14.85;3.35;;;;;;;0.98;60.45;99995.58;1795344;79;21525;-67
2023/04/28 03:42:12;;;;;;;6.97;3.60;;;;;;;1.02;60.46;99994.69;1797642;78;21590;-66
2023/04/28 03:44:38;;;;;;;8.08;2.90;;;;;;;1.08;60.59;99994.66;1796957;78;21036;-66
2023/04/28 03:47:07;;;;;;;13.72;3.15;;;;;;;1.11;60.49;99997.22;1796175;78;20946;-67
2023/04/28 03:49:33;;;;;;;9.08;3.20;;;;;;;1.16;60.69;100000.21;1796229;78;20984;-67
2023/04/28 03:52:03;;;;;;;9.00;2.60;;;;;;;1.21;60.75;99999.77;1795375;78;21052;-66
2023/04/28 03:54:29;;;;;;;5.00;2.83;;;;;;;1.26;60.81;99995.42;1797788;78;21003;-66
2023/04/28 03:56:56;;;;;;;6.67;3.45;;;;;;;1.32;60.71;100004.42;1798052;78;21307;-66
2023/04/28 03:59:23;;;;;;;12.63;5.08;;;;;;;1.33;60.72;100002.27;1797270;78;21495;-66
2023/04/28 04:01:49;;;;;;;8.70;5.00;;;;;;;1.41;60.88;99999.22;1798294;78;22388;-66
2023/04/28 04:04:16;;;;;;;6.50;4.05;;;;;;;1.51;60.92;100006.03;1797697;78;21016;-66
2023/04/28 04:06:42;;;;;;;11.70;3.90;;;;;;;1.60;61.02;100001.67;1802157;78;20993;-66
2023/04/28 04:09:08;;;;;;;14.78;5.35;;;;;;;1.67;61.07;100005.92;1795309;78;21022;-67
2023/04/28 04:11:34;;;;;;;11.85;4.12;;;;;;;1.76;61.14;99999.02;1789964;78;21437;-66
2023/04/28 04:14:01;;;;;;;11.48;3.77;;;;;;;1.88;61.28;100002.37;1794439;78;20946;-67
2023/04/28 04:16:31;;;;;;;9.63;3.35;;;;;;;1.99;61.40;100003.98;1794560;78;21073;-66
2023/04/28 04:18:55;;;;;;;8.08;2.75;;;;;;;2.03;61.29;100001.38;1802222;78;21454;-66
2023/04/28 04:21:21;;;;;;;9.60;2.55;;;;;;;2.13;61.48;100013.30;1797147;78;21168;-66
2023/04/28 04:23:48;;;;;;;6.67;2.47;;;;;;;2.24;61.61;100011.48;1797090;78;20966;-66
2023/04/28 04:26:16;;;;;;;23.40;3.70;;;;;;;2.38;61.64;100010.95;1798018;78;21014;-67
2023/04/28 04:28:42;;;;;;;10.68;3.15;;;;;;;2.56;61.65;100007.78;1798025;78;21013;-67
2023/04/28 04:31:08;;;;;;;5.12;2.52;;;;;;;2.68;61.72;100010.22;1793574;78;21022;-66
2023/04/28 04:33:36;;;;;;;4.58;2.83;;;;;;;2.82;61.66;100010.92;1795354;78;22347;-65
2023/04/28 04:36:05;;;;;;;6.25;3.17;;;;;;;2.97;61.78;100013.78;1789129;78;21069;-64
2023/04/28 04:38:32;;;;;;;5.20;2.55;;;;;;;3.14;61.75;100012.29;1795361;78;21096;-64
2023/04/28 04:40:59;;;;;;;6.17;2.77;;;;;;;3.28;61.85;100007.80;1794873;78;20930;-64
2023/04/28 04:43:25;;;;;;;5.85;2.17;;;;;;;3.42;61.93;100013.20;1790894;78;21025;-64
2023/04/28 04:45:51;;;;;;;6.25;2.45;;;;;;;3.55;61.78;100018.62;1791742;78;21008;-65
2023/04/28 04:48:17;;;;;;;6.47;2.37;;;;;;;3.70;61.85;100010.67;1792744;78;21001;-64
2023/04/28 04:50:44;;;;;;;7.97;2.33;;;;;;;3.84;61.80;100009.59;1793924;78;20935;-64
2023/04/28 04:53:10;;;;;;;3.55;2.20;;;;;;;4.01;61.89;100012.79;1792948;78;21153;-64
2023/04/28 04:55:38;;;;;;;8.90;2.77;;;;;;;4.19;61.90;100017.64;1764086;79;20959;-65
2023/04/28 04:58:06;;;;;;;5.47;2.25;;;;;;;4.38;61.95;100016.05;1784182;79;21049;-65
2023/04/28 05:00:33;;;;;;;6.30;2.70;;;;;;;4.56;62.03;100014.41;1792270;79;20939;-65
2023/04/28 05:02:59;;;;;;;3.70;2.10;;;;;;;4.73;61.91;100018.44;1787381;79;21025;-64
2023/04/28 05:05:25;;;;;;;4.00;2.27;;;;;;;4.87;61.90;100006.09;1790759;79;21049;-65
2023/04/28 05:07:53;;;;;;;10.30;3.47;;;;;;;5.00;61.93;100010.15;1792772;79;20951;-64
2023/04/28 05:10:20;;;;;;;4.35;2.10;;;;;;;5.15;61.93;100012.44;1792185;79;20989;-64
2023/04/28 05:12:46;;;;;;;12.97;3.53;;;;;;;5.31;62.04;100009.52;1788754;79;20939;-65
2023/04/28 05:15:16;;;;;;;7.30;2.60;;;;;;;5.46;61.92;100017.39;1788320;79;21089;-64
2023/04/28 05:17:42;;;;;;;3.90;2.67;;;;;;;5.58;61.98;100011.52;1786499;79;20947;-65
2023/04/28 05:20:10;;;;;;;4.80;2.72;;;;;;;5.75;62.00;100005.95;1791635;79;20942;-65
2023/04/28 05:22:36;;;;;;;7.58;3.08;;;;;;;5.88;61.94;100014.31;1792352;79;20998;-65
2023/04/28 05:25:03;;;;;;;7.05;2.60;;;;;;;5.99;61.96;100012.34;1777342;79;21036;-65
2023/04/28 05:27:31;;;;;;;5.80;2.30;;;;;;;6.12;61.97;100012.05;1787684;79;21623;-64
2023/04/28 05:29:58;;;;;;;5.42;2.77;;;;;;;6.20;61.86;100016.59;1772664;79;21016;-66
2023/04/28 05:32:25;;;;;;;5.70;2.27;;;;;;;6.26;61.81;100014.69;1772892;79;21088;-66
2023/04/28 05:34:51;;;;;;;14.30;3.17;;;;;;;6.30;61.78;100015.45;1775546;79;20967;-66
2023/04/28 05:37:17;;;;;;;5.87;2.58;;;;;;;6.33;61.89;100011.52;1778022;79;20977;-70
2023/04/28 05:39:44;;;;;;;6.53;2.52;;;;;;;6.44;62.07;100009.50;1778325;79;20991;-67
2023/04/28 05:42:10;;;;;;;13.15;2.67;;;;;;;6.53;61.92;100013.59;1761988;80;20951;-66
2023/04/28 05:44:37;;;;;;;5.72;2.70;;;;;;;6.65;62.05;100017.61;1791000;80;20958;-66
2023/04/28 05:47:03;;;;;;;6.03;2.50;;;;;;;6.80;62.03;100011.99;1789786;79;20975;-64
2023/04/28 05:49:29;;;;;;;11.63;3.37;;;;;;;6.91;61.99;100007.36;1781675;79;21620;-64
2023/04/28 05:51:55;;;;;;;3.90;2.35;;;;;;;7.10;62.17;100014.64;1779358;79;21422;-65
2023/04/28 05:54:22;;;;;;;7.05;2.60;;;;;;;7.29;62.11;100010.63;1789027;78;20928;-65
2023/04/28 05:56:49;;;;;;;5.50;2.72;;;;;;;7.46;62.12;100009.28;1790743;78;21041;-65
2023/04/28 05:59:18;;;;;;;5.50;2.52;;;;;;;7.60;62.17;100011.02;1783860;79;20955;-65
2023/04/28 06:01:44;;;;;;;5.95;2.77;;;;;;;7.78;62.10;100002.63;1791498;80;21517;-67
2023/04/28 06:04:10;;;;;;;6.90;2.98;;;;;;;7.95;62.16;100003.85;1795316;78;21061;-62
2023/04/28 06:06:37;;;;;;;6.05;2.70;;;;;;;8.23;62.19;100005.98;1789218;78;21021;-61
2023/04/28 06:09:03;;;;;;;5.28;2.77;;;;;;;8.42;61.96;100006.68;1791458;78;21069;-62
2023/04/28 06:11:30;;;;;;;4.97;2.35;;;;;;;8.51;61.74;100005.06;1792298;78;21006;-62
2023/04/28 06:14:02;;;;;;;5.72;2.42;;;;;;;8.59;61.65;100009.55;1793269;80;20967;-66
2023/04/28 06:16:27;;;;;;;7.00;2.80;;;;;;;8.66;61.65;100006.30;1791063;78;20989;-65
2023/04/28 06:18:53;;;;;;;;;;;;;;;8.77;61.55;100011.14;1796466;78;21040;-62
2023/04/28 06:21:24;;;;;;;8.58;3.02;;;;;;;8.93;61.51;100012.27;1793036;80;20465;-63
2023/04/28 06:23:50;;;;;;;7.25;2.52;;;;;;;9.11;61.62;100016.83;1792242;78;21062;-66
2023/04/28 06:26:17;;;;;;;8.43;2.70;;;;;;;9.33;61.23;100008.23;1793558;78;20919;-61
2023/04/28 06:28:43;;;;;;;9.60;2.77;;;;;;;9.50;61.45;100008.44;1790058;80;21108;-62
2023/04/28 06:31:09;;;;;;;8.25;2.52;;;;;;;9.74;61.37;100004.47;1790961;78;21025;-65
2023/04/28 06:33:35;;;;;;;5.87;1.90;;;;;;;9.99;61.50;100006.48;1785530;78;21081;-64
2023/04/28 06:36:03;;;;;;;4.30;1.90;;;;;;;10.16;60.68;99999.28;1793716;80;20973;-66
2023/04/28 06:38:33;;;;;;;14.53;3.25;;;;;;;10.33;60.68;100005.14;1794683;78;21025;-65
2023/04/28 06:41:03;;;;;;;5.50;1.22;;;;;;;10.58;60.73;99997.12;1791660;78;21111;-65
2023/04/28 06:43:27;;;;;;;5.75;1.55;;;;;;;10.93;60.74;99996.06;1792203;78;20911;-65
2023/04/28 06:45:53;;;;;;;4.28;1.50;;;;;;;11.20;60.38;99996.56;1793609;78;20950;-65
2023/04/28 06:48:24;;;;;;;4.10;1.55;;;;;;;11.65;60.15;99994.08;1788103;78;21021;-65
2023/04/28 06:50:47;;;;;;;5.03;1.47;;;;;;;11.65;60.15;99994.08;1791728;78;20973;-65
2023/04/28 06:53:13;;;;;;;4.15;1.20;;;;;;;11.94;60.26;99998.40;1790533;78;21045;-65
2023/04/28 06:55:40;;;;;;;5.00;1.22;;;;;;;12.28;59.87;99991.88;1792986;80;21024;-65
2023/04/28 06:58:06;;;;;;;3.87;1.50;;;;;;;12.67;60.09;99997.33;1789774;78;21018;-65
2023/04/28 07:00:34;;;;;;;2.90;1.47;;;;;;;13.00;59.87;99996.51;1790525;78;20998;-67
2023/04/28 07:03:00;;;;;;;4.25;1.72;;;;;;;13.42;59.91;99996.00;1789867;78;21032;-68
2023/04/28 07:05:27;;;;;;;4.33;1.30;;;;;;;14.01;59.49;99987.03;1791914;78;21010;-64
2023/04/28 07:07:55;;;;;;;2.40;0.90;;;;;;;14.74;59.32;99983.67;1788571;78;20950;-65
2023/04/28 07:10:23;;;;;;;3.67;1.27;;;;;;;15.01;58.88;99986.39;1786035;78;21013;-72
2023/04/28 07:12:57;;;;;;;2.67;1.20;;;;;;;15.69;59.17;99979.58;1796598;78;21009;-64
2023/04/28 07:15:23;;;;;;;3.27;1.12;;;;;;;16.26;58.33;99985.44;1787676;78;21080;-70
2023/04/28 07:17:52;;;;;;;3.25;1.50;;;;;;;16.97;58.43;99981.97;1802588;78;20950;-64
2023/04/28 07:20:18;;;;;;;7.17;1.65;;;;;;;17.40;56.83;99975.00;1793372;78;21504;-64
2023/04/28 07:22:45;;;;;;;5.28;1.12;;;;;;;17.16;57.35;99982.84;1795126;78;20943;-64
2023/04/28 07:25:11;;;;;;;3.15;1.42;;;;;;;17.88;55.63;99972.42;1797660;78;20935;-61
2023/04/28 07:27:40;;;;;;;6.20;1.37;;;;;;;17.38;54.82;99978.22;1794780;78;20997;-64
2023/04/28 07:30:07;;;;;;;8.20;1.77;;;;;;;16.62;54.35;99976.00;1796623;78;21060;-69
2023/04/28 07:32:33;;;;;;;5.45;1.45;;;;;;;15.76;53.12;99971.16;1791017;78;20951;-64
2023/04/28 07:35:01;;;;;;;4.00;1.45;;;;;;;14.93;53.10;99972.42;1762229;78;23578;-64
2023/04/28 07:37:28;;;;;;;6.58;1.50;;;;;;;14.60;53.87;99970.52;1795479;78;21061;-64
2023/04/28 07:39:56;;;;;;;3.90;1.87;;;;;;;14.51;53.59;99977.98;1798022;78;21055;-64
2023/04/28 07:42:26;;;;;;;3.37;1.42;;;;;;;14.23;52.80;99972.67;1759669;79;21580;-63
2023/04/28 07:44:52;;;;;;;8.83;1.90;;;;;;;13.80;52.85;99981.20;1795719;78;20969;-63
2023/04/28 07:47:18;;;;;;;5.03;1.45;;;;;;;13.69;52.54;99969.63;1795454;78;21560;-64
2023/04/28 07:49:44;;;;;;;10.90;1.47;;;;;;;13.60;52.51;99963.96;1790259;79;21480;-63
2023/04/28 07:52:10;;;;;;;11.28;1.67;;;;;;;13.61;52.44;99969.61;1794508;79;20953;-64
2023/04/28 07:54:37;;;;;;;2.08;1.10;;;;;;;14.88;54.73;99966.59;1782308;79;20983;-64
2023/04/28 07:57:05;;;;;;;6.83;1.27;;;;;;;17.06;53.38;99953.65;1775969;79;20991;-65
2023/04/28 07:59:33;;;;;;;9.95;1.72;;;;;;;17.63;50.91;99947.77;1771070;80;21533;-65
2023/04/28 08:02:00;;;;;;;7.25;1.60;;;;;;;17.39;49.98;99954.81;1775422;80;21030;-64
2023/04/28 08:04:26;;;;;;;14.47;2.22;;;;;;;16.96;50.55;99956.55;1773490;80;20938;-64
2023/04/28 08:06:53;;;;;;;3.60;1.57;;;;;;;16.74;50.79;99957.17;1767848;79;21014;-63
2023/04/28 08:09:19;;;;;;;4.80;1.87;;;;;;;17.84;52.57;99959.05;1773439;79;20981;-64
2023/04/28 08:11:46;;;;;;;25.27;3.80;;;;;;;19.17;51.64;99955.98;1765745;80;20994;-64
2023/04/28 08:14:12;;;;;;;10.20;1.70;;;;;;;20.85;50.90;99953.64;1780491;80;21203;-68
2023/04/28 08:16:41;;;;;;;;;;;;;;;22.54;51.32;99952.12;1779223;80;21016;-64
2023/04/28 08:19:07;;;;;;;24.05;3.08;;;;;;;24.26;48.03;99951.45;1776484;80;20151;-65
2023/04/28 08:21:34;;;;;;;6.97;1.57;;;;;;;25.43;48.92;99939.41;1777735;80;21021;-65
2023/04/28 08:24:03;;;;;;;9.35;1.92;;;;;;;25.04;44.47;99947.95;1772584;79;20920;-65
2023/04/28 08:26:30;;;;;;;45.23;5.12;;;;;;;23.59;45.63;99958.16;1774808;79;20975;-65
2023/04/28 08:28:56;;;;;;;7.22;1.42;;;;;;;22.56;46.77;99947.50;1775477;79;21045;-65
2023/04/28 08:31:27;;;;;;;46.90;5.78;;;;;;;21.18;45.30;99952.02;1775152;79;21474;-65
2023/04/28 08:33:53;;;;;;;12.23;2.60;;;;;;;20.83;47.20;99952.92;1776045;79;21021;-64
2023/04/28 08:36:23;;;;;;;4.78;1.55;;;;;;;22.27;47.61;99939.59;1772570;79;21794;-68
2023/04/28 08:38:50;;;;;;;4.78;1.25;;;;;;;24.05;46.69;99944.27;1777596;79;21562;-65
2023/04/28 08:41:18;;;;;;;1.50;0.93;;;;;;;25.59;45.28;99942.13;1773222;79;21521;-66
2023/04/28 08:43:44;;;;;;;3.75;1.20;;;;;;;26.55;42.98;99936.19;1772549;79;21612;-65
2023/04/28 08:46:12;;;;;;;29.40;3.50;;;;;;;27.17;44.03;99937.35;1775155;79;20998;-64
2023/04/28 08:48:43;;;;;;;14.47;2.15;;;;;;;28.37;43.53;99932.81;1774823;79;21021;-65
2023/04/28 08:51:14;;;;;;;16.65;2.92;;;;;;;29.45;38.45;99926.88;1776518;79;21026;-66
2023/04/28 08:53:43;;;;;;;25.62;3.37;;;;;;;30.28;42.30;99922.75;1780002;79;21029;-66
2023/04/28 08:56:12;;;;;;;3.40;1.00;;;;;;;29.58;38.86;99925.69;1790512;78;21053;-66
2023/04/28 08:58:39;;;;;;;19.73;2.85;;;;;;;28.13;35.57;99926.67;1791822;78;21061;-65
2023/04/28 09:01:05;;;;;;;7.55;1.35;;;;;;;27.65;38.78;99932.72;1789883;78;20981;-65
2023/04/28 09:03:32;;;;;;;3.65;1.05;;;;;;;28.58;38.11;99928.95;1795176;78;21001;-66
2023/04/28 09:06:00;;;;;;;5.80;1.22;;;;;;;28.61;36.53;99925.06;1795574;78;21049;-65
2023/04/28 09:08:27;;;;;;;3.90;1.30;;;;;;;27.71;36.41;99925.30;1773326;79;21027;-66
2023/04/28 09:11:12;;;;;;;2.37;1.07;;;;;;;26.24;35.03;99929.82;1745544;81;21407;-66
2023/04/28 09:13:41;;;;;;;3.08;0.90;;;;;;;25.13;35.57;99930.95;1780613;79;21050;-65
2023/04/28 09:16:07;;;;;;;2.60;0.95;;;;;;;23.94;35.06;99932.51;1793316;78;20985;-64
2023/04/28 09:18:34;;;;;;;20.17;3.58;;;;;;;22.80;34.70;99934.20;1797903;78;21005;-64
2023/04/28 09:21:08;;;;;;;6.78;1.82;;;;;;;21.72;33.97;99929.16;1741228;79;21004;-65
2023/04/28 09:23:41;;;;;;;5.25;1.72;;;;;;;20.65;34.08;99938.95;1791120;78;21467;-64
2023/04/28 09:26:06;;;;;;;12.13;2.30;;;;;;;19.93;33.74;99938.85;1794313;78;21052;-66
2023/04/28 09:28:34;;;;;;;20.97;3.45;;;;;;;19.24;33.68;99939.99;1797055;78;21016;-64
2023/04/28 09:31:02;;;;;;;22.17;2.80;;;;;;;19.01;34.04;99930.72;1796226;78;21010;-64
2023/04/28 09:33:29;;;;;;;3.30;1.20;;;;;;;20.57;35.02;99940.09;1794468;78;20969;-65
2023/04/28 09:35:58;;;;;;;5.00;1.52;;;;;;;23.13;35.22;99926.64;1798662;78;21013;-64
2023/04/28 09:38:24;;;;;;;1.45;1.00;;;;;;;24.91;34.03;99920.84;1795920;78;20951;-65
2023/04/28 09:41:02;;;;;;;7.67;1.10;;;;;;;25.25;32.42;99920.00;1796301;78;20942;-65
2023/04/28 09:43:33;;;;;;;2.25;1.10;;;;;;;24.78;30.98;99922.10;1794048;78;21058;-65
2023/04/28 09:46:02;;;;;;;10.13;1.75;;;;;;;24.20;31.27;99916.06;1798220;78;21045;-64
2023/04/28 09:48:39;;;;;;;3.80;1.30;;;;;;;23.79;31.95;99919.72;1793070;78;21080;-65
2023/04/28 09:51:08;;;;;;;4.03;1.15;;;;;;;23.12;31.03;99926.31;1793066;78;20978;-64
2023/04/28 09:53:35;;;;;;;7.45;1.90;;;;;;;21.82;30.93;99926.02;1798229;78;20957;-64
2023/04/28 09:56:07;;;;;;;9.20;1.65;;;;;;;20.91;31.04;99937.17;1799215;78;20987;-64
2023/04/28 09:58:34;;;;;;;3.58;1.20;;;;;;;20.34;31.13;99928.27;1795494;78;20969;-65
2023/04/28 10:01:00;;;;;;;8.88;1.32;;;;;;;19.81;31.06;99926.97;1770566;79;21007;-63
2023/04/28 10:03:29;;;;;;;1.37;1.10;;;;;;;19.15;30.91;99927.47;1768705;78;21540;-62
2023/04/28 10:05:57;;;;;;;11.28;1.27;;;;;;;18.37;30.78;99927.77;1773771;79;21490;-62
2023/04/28 10:08:26;;;;;;;8.25;1.50;;;;;;;17.87;30.98;99924.52;1771122;78;21029;-64
2023/04/28 10:10:53;;;;;;;10.23;2.08;;;;;;;17.38;30.83;99928.06;1799723;78;21033;-64
2023/04/28 10:13:21;;;;;;;4.30;1.35;;;;;;;17.11;30.82;99931.75;1798960;78;20959;-65
2023/04/28 10:15:48;;;;;;;3.62;1.10;;;;;;;16.76;30.86;99925.83;1786923;78;21103;-64
2023/04/28 10:18:15;;;;;;;6.33;1.60;;;;;;;16.63;31.20;99922.31;1800700;78;21061;-64
2023/04/28 10:20:48;;;;;;;3.58;1.12;;;;;;;16.59;31.10;99928.77;1798728;78;21088;-64
2023/04/28 10:23:46;;;;;;;5.47;1.30;;;;;;;16.54;31.17;99920.32;1796749;78;21069;-66
2023/04/28 10:26:15;;;;;;;4.60;1.20;;;;;;;17.33;31.74;99920.95;1794128;78;21092;-67
2023/04/28 10:28:49;;;;;;;11.68;1.52;;;;;;;19.12;31.45;99917.13;1796871;78;21033;-67
2023/04/28 10:31:19;;;;;;;9.55;1.70;;;;;;;20.18;31.19;99913.30;1801155;78;21007;-66
2023/04/28 10:33:47;;;;;;;1.95;1.30;;;;;;;21.42;31.59;99903.03;1796005;78;21100;-65
2023/04/28 10:36:53;;;;;;;1.27;0.85;;;;;;;22.25;30.82;99898.99;1794319;78;21487;-71
2023/04/28 10:39:20;;;;;;;2.95;1.17;;;;;;;22.28;30.52;99903.19;1791267;78;21065;-65
2023/04/28 10:41:47;;;;;;;;;;;;;;;22.21;30.53;99908.72;1797296;78;21033;-65
2023/04/28 10:44:36;;;;;;;3.15;1.20;;;;;;;21.87;30.17;99902.50;1795370;78;20159;-65
2023/04/28 10:47:08;;;;;;;6.42;1.30;;;;;;;21.57;30.67;99906.16;1762366;80;20993;-66
2023/04/28 10:49:58;;;;;;;2.42;1.20;;;;;;;21.08;30.38;99916.63;1792466;78;21539;-66
2023/04/28 10:52:39;;;;;;;2.60;1.20;;;;;;;20.67;30.51;99910.48;1793031;78;21053;-67
2023/04/28 10:55:32;;;;;;;3.50;1.20;;;;;;;20.46;30.40;99912.28;1789500;78;20947;-65
2023/04/28 10:58:21;;;;;;;76.65;5.40;;;;;;;20.23;30.07;99908.45;1790025;78;20979;-65
2023/04/28 11:00:50;;;;;;;2.15;1.05;;;;;;;20.03;30.29;99907.98;1795929;78;21008;-66
2023/04/28 11:03:30;;;;;;;5.10;1.70;;;;;;;20.83;30.50;99913.95;1793386;78;21595;-63
2023/04/28 11:06:25;;;;;;;9.23;1.27;;;;;;;20.98;29.59;99910.47;1775933;78;21028;-65
2023/04/28 11:08:54;;;;;;;14.05;2.40;;;;;;;20.69;29.85;99908.52;1789361;78;21293;-65
2023/04/28 11:11:26;;;;;;;5.40;1.27;;;;;;;20.55;29.66;99908.87;1788760;78;20966;-64
2023/04/28 11:13:55;;;;;;;36.13;3.72;;;;;;;19.95;29.48;99915.72;1787718;78;21044;-61
2023/04/28 11:16:23;;;;;;;40.98;3.70;;;;;;;19.19;29.80;99911.23;1790353;78;21626;-62
2023/04/28 11:18:53;;;;;;;5.37;1.50;;;;;;;18.71;29.87;99908.00;1789338;78;21074;-64
2023/04/28 11:21:21;;;;;;;2.10;1.40;;;;;;;18.50;29.93;99904.72;1774676;79;20974;-65
2023/04/28 11:23:48;;;;;;;18.50;2.25;;;;;;;18.32;29.91;99907.47;1772477;80;21057;-65
2023/04/28 11:26:16;;;;;;;7.90;1.30;;;;;;;18.30;29.97;99906.73;1766809;80;21532;-66
2023/04/28 11:28:54;;;;;;;4.30;1.32;;;;;;;18.32;30.05;99907.47;1764120;80;20965;-66
2023/04/28 11:31:23;;;;;;;2.02;0.93;;;;;;;18.35;29.88;99909.87;1762444;80;20993;-65
2023/04/28 11:34:06;;;;;;;7.15;1.65;;;;;;;18.66;30.06;99908.83;1758741;80;21570;-65
2023/04/28 11:36:38;;;;;;;3.85;1.30;;;;;;;19.41;30.57;99899.75;1770526;80;21068;-66
2023/04/28 11:39:07;;;;;;;2.37;1.60;;;;;;;21.60;30.64;99886.78;1773529;80;20938;-67
2023/04/28 11:41:38;;;;;;;7.53;2.05;;;;;;;22.45;29.75;99885.64;1765105;80;21390;-65